sensor_id;sensor_type;location;lat;lon;timestamp;P1;durP1;ratioP1;P2;durP2;ratioP2
53505;SDS011;39388;50.936;6.848;2023-02-26T00:01:31;4.45;;;3.65;;
53505;SDS011;39388;50.936;6.848;2023-02-26T00:04:24;3.63;;;3.35;;
53505;SDS011;39388;50.936;6.848;2023-02-26T00:09:49;8.77;;;3.90;;
53505;SDS011;39388;50.936;6.848;2023-02-26T00:13:14;5.70;;;4.63;;
53505;SDS011;39388;50.936;6.848;2023-02-26T00:15:57;4.35;;;3.40;;
53505;SDS011;39388;50.936;6.848;2023-02-26T00:18:30;4.70;;;3.63;;
53505;SDS011;39388;50.936;6.848;2023-02-26T00:21:01;6.53;;;3.50;;
53505;SDS011;39388;50.936;6.848;2023-02-26T00:23:33;3.80;;;3.50;;
53505;SDS011;39388;50.936;6.848;2023-02-26T00:26:04;4.00;;;3.25;;
53505;SDS011;39388;50.936;6.848;2023-02-26T00:28:36;5.35;;;3.42;;
53505;SDS011;39388;50.936;6.848;2023-02-26T00:31:08;8.13;;;3.45;;
53505;SDS011;39388;50.936;6.848;2023-02-26T00:33:40;4.47;;;3.22;;
53505;SDS011;39388;50.936;6.848;2023-02-26T00:36:20;4.45;;;3.60;;
53505;SDS011;39388;50.936;6.848;2023-02-26T00:39:33;4.57;;;3.30;;
53505;SDS011;39388;50.936;6.848;2023-02-26T00:42:11;5.28;;;3.50;;
53505;SDS011;39388;50.936;6.848;2023-02-26T00:44:46;3.50;;;3.20;;
53505;SDS011;39388;50.936;6.848;2023-02-26T00:50:48;4.95;;;3.63;;
53505;SDS011;39388;50.936;6.848;2023-02-26T00:53:53;4.10;;;3.78;;
53505;SDS011;39388;50.936;6.848;2023-02-26T00:57:09;5.68;;;3.50;;
53505;SDS011;39388;50.936;6.848;2023-02-26T00:59:46;3.63;;;3.33;;
53505;SDS011;39388;50.936;6.848;2023-02-26T01:02:17;5.35;;;3.28;;
53505;SDS011;39388;50.936;6.848;2023-02-26T01:04:59;3.60;;;3.30;;
53505;SDS011;39388;50.936;6.848;2023-02-26T01:07:32;4.50;;;3.53;;
53505;SDS011;39388;50.936;6.848;2023-02-26T01:13:30;3.92;;;3.35;;
53505;SDS011;39388;50.936;6.848;2023-02-26T01:16:19;4.20;;;3.40;;
53505;SDS011;39388;50.936;6.848;2023-02-26T01:19:02;5.03;;;3.20;;
53505;SDS011;39388;50.936;6.848;2023-02-26T01:25:12;3.47;;;2.90;;
53505;SDS011;39388;50.936;6.848;2023-02-26T01:27:56;3.60;;;3.10;;
53505;SDS011;39388;50.936;6.848;2023-02-26T01:31:04;4.40;;;3.20;;
53505;SDS011;39388;50.936;6.848;2023-02-26T01:37:13;5.85;;;2.95;;
53505;SDS011;39388;50.936;6.848;2023-02-26T01:47:28;4.10;;;2.90;;
53505;SDS011;39388;50.936;6.848;2023-02-26T01:50:13;4.45;;;3.10;;
53505;SDS011;39388;50.936;6.848;2023-02-26T01:53:25;4.35;;;3.95;;
53505;SDS011;39388;50.936;6.848;2023-02-26T01:55:59;3.83;;;3.53;;
53505;SDS011;39388;50.936;6.848;2023-02-26T01:58:35;3.95;;;3.30;;
53505;SDS011;39388;50.936;6.848;2023-02-26T02:01:07;5.45;;;3.30;;
53505;SDS011;39388;50.936;6.848;2023-02-26T02:03:39;3.10;;;2.90;;
53505;SDS011;39388;50.936;6.848;2023-02-26T02:06:21;3.50;;;3.20;;
53505;SDS011;39388;50.936;6.848;2023-02-26T02:08:56;3.50;;;3.20;;
53505;SDS011;39388;50.936;6.848;2023-02-26T02:11:27;10.63;;;3.50;;
53505;SDS011;39388;50.936;6.848;2023-02-26T02:14:02;5.57;;;3.28;;
53505;SDS011;39388;50.936;6.848;2023-02-26T02:28:31;4.63;;;3.10;;
53505;SDS011;39388;50.936;6.848;2023-02-26T02:34:35;4.75;;;3.13;;
53505;SDS011;39388;50.936;6.848;2023-02-26T02:37:31;3.78;;;3.38;;
53505;SDS011;39388;50.936;6.848;2023-02-26T02:40:10;3.47;;;3.03;;
53505;SDS011;39388;50.936;6.848;2023-02-26T02:42:48;4.93;;;3.10;;
53505;SDS011;39388;50.936;6.848;2023-02-26T02:45:39;4.93;;;3.08;;
53505;SDS011;39388;50.936;6.848;2023-02-26T02:48:22;3.88;;;3.58;;
53505;SDS011;39388;50.936;6.848;2023-02-26T02:51:16;3.55;;;3.03;;
53505;SDS011;39388;50.936;6.848;2023-02-26T02:53:59;3.50;;;3.20;;
53505;SDS011;39388;50.936;6.848;2023-02-26T02:57:05;4.13;;;3.38;;
53505;SDS011;39388;50.936;6.848;2023-02-26T02:59:59;4.03;;;3.65;;
53505;SDS011;39388;50.936;6.848;2023-02-26T03:05:11;3.78;;;3.47;;
53505;SDS011;39388;50.936;6.848;2023-02-26T03:07:47;3.65;;;3.35;;
53505;SDS011;39388;50.936;6.848;2023-02-26T03:10:25;4.75;;;3.10;;
53505;SDS011;39388;50.936;6.848;2023-02-26T03:18:59;4.07;;;3.50;;
53505;SDS011;39388;50.936;6.848;2023-02-26T03:25:13;3.95;;;3.10;;
53505;SDS011;39388;50.936;6.848;2023-02-26T03:31:22;3.72;;;3.42;;
53505;SDS011;39388;50.936;6.848;2023-02-26T03:34:06;3.90;;;3.10;;
53505;SDS011;39388;50.936;6.848;2023-02-26T03:37:01;5.55;;;3.50;;
53505;SDS011;39388;50.936;6.848;2023-02-26T03:40:14;5.22;;;3.20;;
53505;SDS011;39388;50.936;6.848;2023-02-26T03:43:09;3.35;;;3.13;;
53505;SDS011;39388;50.936;6.848;2023-02-26T03:45:57;7.07;;;3.67;;
53505;SDS011;39388;50.936;6.848;2023-02-26T03:48:36;3.83;;;3.38;;
53505;SDS011;39388;50.936;6.848;2023-02-26T03:51:09;3.78;;;3.38;;
53505;SDS011;39388;50.936;6.848;2023-02-26T03:53:56;5.32;;;3.42;;
53505;SDS011;39388;50.936;6.848;2023-02-26T03:56:39;3.55;;;3.30;;
53505;SDS011;39388;50.936;6.848;2023-02-26T03:59:21;3.50;;;3.20;;
53505;SDS011;39388;50.936;6.848;2023-02-26T04:02:04;3.60;;;3.30;;
53505;SDS011;39388;50.936;6.848;2023-02-26T04:10:31;4.03;;;3.38;;
53505;SDS011;39388;50.936;6.848;2023-02-26T04:13:09;3.63;;;3.35;;
53505;SDS011;39388;50.936;6.848;2023-02-26T04:15:41;3.92;;;3.10;;
53505;SDS011;39388;50.936;6.848;2023-02-26T04:18:57;3.92;;;3.50;;
53505;SDS011;39388;50.936;6.848;2023-02-26T04:21:36;4.53;;;3.30;;
53505;SDS011;39388;50.936;6.848;2023-02-26T04:24:29;3.53;;;3.20;;
53505;SDS011;39388;50.936;6.848;2023-02-26T04:27:04;3.97;;;3.33;;
53505;SDS011;39388;50.936;6.848;2023-02-26T04:29:35;3.17;;;2.97;;
53505;SDS011;39388;50.936;6.848;2023-02-26T04:32:08;5.37;;;3.20;;
53505;SDS011;39388;50.936;6.848;2023-02-26T04:35:00;3.67;;;3.37;;
53505;SDS011;39388;50.936;6.848;2023-02-26T04:37:37;3.35;;;2.90;;
53505;SDS011;39388;50.936;6.848;2023-02-26T04:40:09;3.70;;;3.20;;
53505;SDS011;39388;50.936;6.848;2023-02-26T04:42:42;3.50;;;3.20;;
53505;SDS011;39388;50.936;6.848;2023-02-26T04:45:38;3.30;;;3.00;;
53505;SDS011;39388;50.936;6.848;2023-02-26T04:48:13;4.20;;;3.30;;
53505;SDS011;39388;50.936;6.848;2023-02-26T04:50:47;3.35;;;3.05;;
53505;SDS011;39388;50.936;6.848;2023-02-26T04:53:24;3.30;;;3.10;;
53505;SDS011;39388;50.936;6.848;2023-02-26T04:55:57;2.90;;;2.80;;
53505;SDS011;39388;50.936;6.848;2023-02-26T04:58:30;3.35;;;3.05;;
53505;SDS011;39388;50.936;6.848;2023-02-26T05:01:05;3.70;;;2.90;;
53505;SDS011;39388;50.936;6.848;2023-02-26T05:03:43;3.90;;;3.50;;
53505;SDS011;39388;50.936;6.848;2023-02-26T05:06:23;3.28;;;3.05;;
53505;SDS011;39388;50.936;6.848;2023-02-26T05:08:58;3.42;;;2.95;;
53505;SDS011;39388;50.936;6.848;2023-02-26T05:11:53;4.32;;;3.00;;
53505;SDS011;39388;50.936;6.848;2023-02-26T05:15:01;5.25;;;3.03;;
53505;SDS011;39388;50.936;6.848;2023-02-26T05:17:52;3.65;;;3.30;;
53505;SDS011;39388;50.936;6.848;2023-02-26T05:31:39;3.67;;;3.38;;
53505;SDS011;39388;50.936;6.848;2023-02-26T05:46:00;3.83;;;3.40;;
53505;SDS011;39388;50.936;6.848;2023-02-26T05:49:16;4.32;;;3.22;;
53505;SDS011;39388;50.936;6.848;2023-02-26T05:52:18;5.55;;;3.33;;
53505;SDS011;39388;50.936;6.848;2023-02-26T05:54:53;4.70;;;3.20;;
53505;SDS011;39388;50.936;6.848;2023-02-26T05:58:23;4.13;;;3.60;;
53505;SDS011;39388;50.936;6.848;2023-02-26T06:01:35;3.70;;;3.40;;
53505;SDS011;39388;50.936;6.848;2023-02-26T06:07:33;4.25;;;3.33;;
53505;SDS011;39388;50.936;6.848;2023-02-26T06:10:38;5.50;;;3.47;;
53505;SDS011;39388;50.936;6.848;2023-02-26T06:14:14;4.20;;;3.47;;
53505;SDS011;39388;50.936;6.848;2023-02-26T06:17:04;4.07;;;3.75;;
53505;SDS011;39388;50.936;6.848;2023-02-26T06:23:02;5.38;;;3.53;;
53505;SDS011;39388;50.936;6.848;2023-02-26T06:26:01;3.90;;;3.50;;
53505;SDS011;39388;50.936;6.848;2023-02-26T06:29:31;4.70;;;4.30;;
53505;SDS011;39388;50.936;6.848;2023-02-26T06:32:27;4.72;;;3.60;;
53505;SDS011;39388;50.936;6.848;2023-02-26T06:35:35;4.03;;;3.60;;
53505;SDS011;39388;50.936;6.848;2023-02-26T06:38:06;4.60;;;3.80;;
53505;SDS011;39388;50.936;6.848;2023-02-26T06:40:52;4.50;;;4.07;;
53505;SDS011;39388;50.936;6.848;2023-02-26T06:44:02;3.85;;;3.42;;
53505;SDS011;39388;50.936;6.848;2023-02-26T06:46:36;4.18;;;3.50;;
53505;SDS011;39388;50.936;6.848;2023-02-26T06:49:39;4.13;;;3.78;;
53505;SDS011;39388;50.936;6.848;2023-02-26T06:52:15;3.80;;;3.50;;
53505;SDS011;39388;50.936;6.848;2023-02-26T06:54:50;4.55;;;3.40;;
53505;SDS011;39388;50.936;6.848;2023-02-26T06:57:56;3.53;;;3.33;;
53505;SDS011;39388;50.936;6.848;2023-02-26T07:01:44;5.93;;;4.57;;
53505;SDS011;39388;50.936;6.848;2023-02-26T07:05:26;4.85;;;4.00;;
53505;SDS011;39388;50.936;6.848;2023-02-26T07:09:08;4.40;;;3.50;;
53505;SDS011;39388;50.936;6.848;2023-02-26T07:12:45;3.67;;;3.47;;
53505;SDS011;39388;50.936;6.848;2023-02-26T07:15:56;3.80;;;3.50;;
53505;SDS011;39388;50.936;6.848;2023-02-26T07:18:46;3.70;;;3.40;;
53505;SDS011;39388;50.936;6.848;2023-02-26T07:21:20;3.45;;;3.25;;
53505;SDS011;39388;50.936;6.848;2023-02-26T07:24:00;4.60;;;3.50;;
53505;SDS011;39388;50.936;6.848;2023-02-26T07:26:31;4.07;;;3.67;;
53505;SDS011;39388;50.936;6.848;2023-02-26T07:29:03;4.03;;;3.63;;
53505;SDS011;39388;50.936;6.848;2023-02-26T07:31:38;3.45;;;3.22;;
53505;SDS011;39388;50.936;6.848;2023-02-26T07:45:10;4.55;;;4.00;;
53505;SDS011;39388;50.936;6.848;2023-02-26T07:48:04;3.97;;;3.55;;
53505;SDS011;39388;50.936;6.848;2023-02-26T07:50:51;4.57;;;3.50;;
53505;SDS011;39388;50.936;6.848;2023-02-26T07:53:42;4.10;;;3.70;;
53505;SDS011;39388;50.936;6.848;2023-02-26T07:59:53;5.03;;;4.00;;
53505;SDS011;39388;50.936;6.848;2023-02-26T08:02:50;4.35;;;3.95;;
53505;SDS011;39388;50.936;6.848;2023-02-26T08:12:11;5.15;;;3.95;;
53505;SDS011;39388;50.936;6.848;2023-02-26T08:15:59;4.20;;;3.80;;
53505;SDS011;39388;50.936;6.848;2023-02-26T08:18:56;4.20;;;3.90;;
53505;SDS011;39388;50.936;6.848;2023-02-26T08:21:27;4.55;;;4.00;;
53505;SDS011;39388;50.936;6.848;2023-02-26T08:24:01;4.07;;;3.67;;
53505;SDS011;39388;50.936;6.848;2023-02-26T08:26:35;4.75;;;3.75;;
53505;SDS011;39388;50.936;6.848;2023-02-26T08:29:06;4.35;;;4.03;;
53505;SDS011;39388;50.936;6.848;2023-02-26T08:31:37;4.20;;;3.80;;
53505;SDS011;39388;50.936;6.848;2023-02-26T08:34:07;5.80;;;4.10;;
53505;SDS011;39388;50.936;6.848;2023-02-26T08:36:43;4.57;;;3.58;;
53505;SDS011;39388;50.936;6.848;2023-02-26T08:39:14;4.03;;;3.63;;
53505;SDS011;39388;50.936;6.848;2023-02-26T08:41:45;4.10;;;3.80;;
53505;SDS011;39388;50.936;6.848;2023-02-26T08:44:15;3.90;;;3.60;;
53505;SDS011;39388;50.936;6.848;2023-02-26T08:47:04;4.15;;;3.75;;
53505;SDS011;39388;50.936;6.848;2023-02-26T08:50:30;4.07;;;3.60;;
53505;SDS011;39388;50.936;6.848;2023-02-26T08:53:13;4.95;;;3.60;;
53505;SDS011;39388;50.936;6.848;2023-02-26T08:55:47;3.58;;;3.28;;
53505;SDS011;39388;50.936;6.848;2023-02-26T08:58:19;4.00;;;3.40;;
53505;SDS011;39388;50.936;6.848;2023-02-26T09:00:50;4.50;;;3.50;;
53505;SDS011;39388;50.936;6.848;2023-02-26T09:07:02;3.28;;;3.00;;
53505;SDS011;39388;50.936;6.848;2023-02-26T09:09:57;3.63;;;3.20;;
53505;SDS011;39388;50.936;6.848;2023-02-26T09:12:35;4.70;;;3.10;;
53505;SDS011;39388;50.936;6.848;2023-02-26T09:17:49;3.75;;;3.28;;
53505;SDS011;39388;50.936;6.848;2023-02-26T09:20:24;4.03;;;3.10;;
53505;SDS011;39388;50.936;6.848;2023-02-26T09:22:55;3.10;;;2.90;;
53505;SDS011;39388;50.936;6.848;2023-02-26T09:25:25;3.78;;;3.40;;
53505;SDS011;39388;50.936;6.848;2023-02-26T09:27:55;3.83;;;3.10;;
53505;SDS011;39388;50.936;6.848;2023-02-26T09:30:26;3.30;;;2.95;;
53505;SDS011;39388;50.936;6.848;2023-02-26T09:32:56;2.85;;;2.65;;
53505;SDS011;39388;50.936;6.848;2023-02-26T09:35:27;5.10;;;2.90;;
53505;SDS011;39388;50.936;6.848;2023-02-26T09:37:57;3.88;;;3.45;;
53505;SDS011;39388;50.936;6.848;2023-02-26T09:43:22;4.03;;;3.00;;
53505;SDS011;39388;50.936;6.848;2023-02-26T09:45:55;3.15;;;2.92;;
53505;SDS011;39388;50.936;6.848;2023-02-26T09:48:30;2.70;;;2.50;;
53505;SDS011;39388;50.936;6.848;2023-02-26T09:51:04;3.03;;;2.80;;
53505;SDS011;39388;50.936;6.848;2023-02-26T09:53:38;2.75;;;2.58;;
53505;SDS011;39388;50.936;6.848;2023-02-26T09:56:14;4.70;;;2.60;;
53505;SDS011;39388;50.936;6.848;2023-02-26T09:58:47;2.90;;;2.60;;
53505;SDS011;39388;50.936;6.848;2023-02-26T10:01:24;5.35;;;3.05;;
53505;SDS011;39388;50.936;6.848;2023-02-26T10:04:21;3.78;;;2.70;;
53505;SDS011;39388;50.936;6.848;2023-02-26T10:09:52;3.08;;;2.10;;
53505;SDS011;39388;50.936;6.848;2023-02-26T10:12:27;4.68;;;2.38;;
53505;SDS011;39388;50.936;6.848;2023-02-26T10:26:04;2.22;;;2.13;;
53505;SDS011;39388;50.936;6.848;2023-02-26T10:34:51;2.33;;;2.17;;
53505;SDS011;39388;50.936;6.848;2023-02-26T10:40:10;2.08;;;1.98;;
53505;SDS011;39388;50.936;6.848;2023-02-26T10:42:47;2.55;;;2.35;;
53505;SDS011;39388;50.936;6.848;2023-02-26T10:48:07;2.03;;;1.93;;
53505;SDS011;39388;50.936;6.848;2023-02-26T10:50:43;2.22;;;2.00;;
53505;SDS011;39388;50.936;6.848;2023-02-26T10:53:19;2.30;;;2.20;;
53505;SDS011;39388;50.936;6.848;2023-02-26T10:56:10;2.27;;;2.17;;
53505;SDS011;39388;50.936;6.848;2023-02-26T10:58:54;2.70;;;2.22;;
53505;SDS011;39388;50.936;6.848;2023-02-26T11:01:25;3.38;;;2.10;;
53505;SDS011;39388;50.936;6.848;2023-02-26T11:04:02;2.58;;;2.40;;
53505;SDS011;39388;50.936;6.848;2023-02-26T11:06:54;2.20;;;2.08;;
53505;SDS011;39388;50.936;6.848;2023-02-26T11:09:25;2.30;;;2.20;;
53505;SDS011;39388;50.936;6.848;2023-02-26T11:14:46;3.47;;;2.13;;
53505;SDS011;39388;50.936;6.848;2023-02-26T11:19:56;1.98;;;1.88;;
53505;SDS011;39388;50.936;6.848;2023-02-26T11:22:31;3.55;;;2.33;;
53505;SDS011;39388;50.936;6.848;2023-02-26T11:25:05;2.42;;;2.30;;
53505;SDS011;39388;50.936;6.848;2023-02-26T11:27:36;2.40;;;2.20;;
53505;SDS011;39388;50.936;6.848;2023-02-26T11:30:26;2.05;;;1.90;;
53505;SDS011;39388;50.936;6.848;2023-02-26T11:33:03;2.20;;;2.10;;
53505;SDS011;39388;50.936;6.848;2023-02-26T11:35:36;2.95;;;2.10;;
53505;SDS011;39388;50.936;6.848;2023-02-26T11:38:07;2.60;;;2.03;;
53505;SDS011;39388;50.936;6.848;2023-02-26T11:40:55;2.20;;;2.00;;
53505;SDS011;39388;50.936;6.848;2023-02-26T11:43:32;2.38;;;2.10;;
53505;SDS011;39388;50.936;6.848;2023-02-26T11:46:14;2.15;;;1.92;;
53505;SDS011;39388;50.936;6.848;2023-02-26T11:48:46;2.50;;;2.28;;
53505;SDS011;39388;50.936;6.848;2023-02-26T11:53:56;2.83;;;2.00;;
53505;SDS011;39388;50.936;6.848;2023-02-26T11:56:38;2.10;;;1.90;;
53505;SDS011;39388;50.936;6.848;2023-02-26T11:59:20;2.10;;;2.00;;
53505;SDS011;39388;50.936;6.848;2023-02-26T12:01:52;2.00;;;1.90;;
53505;SDS011;39388;50.936;6.848;2023-02-26T12:04:24;1.90;;;1.80;;
53505;SDS011;39388;50.936;6.848;2023-02-26T12:06:55;1.98;;;1.88;;
53505;SDS011;39388;50.936;6.848;2023-02-26T12:09:25;2.58;;;1.98;;
53505;SDS011;39388;50.936;6.848;2023-02-26T12:12:40;2.25;;;1.80;;
53505;SDS011;39388;50.936;6.848;2023-02-26T12:17:48;2.00;;;1.90;;
53505;SDS011;39388;50.936;6.848;2023-02-26T12:23:33;1.95;;;1.80;;
53505;SDS011;39388;50.936;6.848;2023-02-26T12:29:40;4.18;;;2.22;;
53505;SDS011;39388;50.936;6.848;2023-02-26T12:34:43;1.73;;;1.65;;
53505;SDS011;39388;50.936;6.848;2023-02-26T12:43:36;2.90;;;1.83;;
53505;SDS011;39388;50.936;6.848;2023-02-26T12:47:02;1.98;;;1.75;;
53505;SDS011;39388;50.936;6.848;2023-02-26T13:06:19;1.80;;;1.70;;
53505;SDS011;39388;50.936;6.848;2023-02-26T13:20:56;1.70;;;1.60;;
53505;SDS011;39388;50.936;6.848;2023-02-26T13:23:35;3.03;;;1.85;;
53505;SDS011;39388;50.936;6.848;2023-02-26T13:26:21;1.92;;;1.80;;
53505;SDS011;39388;50.936;6.848;2023-02-26T13:29:05;2.00;;;1.80;;
53505;SDS011;39388;50.936;6.848;2023-02-26T13:31:49;1.80;;;1.70;;
53505;SDS011;39388;50.936;6.848;2023-02-26T13:37:27;1.73;;;1.63;;
53505;SDS011;39388;50.936;6.848;2023-02-26T13:45:49;1.60;;;1.50;;
53505;SDS011;39388;50.936;6.848;2023-02-26T13:54:06;1.80;;;1.70;;
53505;SDS011;39388;50.936;6.848;2023-02-26T14:02:00;1.75;;;1.65;;
53505;SDS011;39388;50.936;6.848;2023-02-26T14:04:52;2.22;;;1.95;;
53505;SDS011;39388;50.936;6.848;2023-02-26T14:07:46;2.00;;;1.80;;
53505;SDS011;39388;50.936;6.848;2023-02-26T14:11:23;2.08;;;1.98;;
53505;SDS011;39388;50.936;6.848;2023-02-26T14:13:39;2.17;;;1.95;;
53505;SDS011;39388;50.936;6.848;2023-02-26T14:18:50;1.80;;;1.70;;
53505;SDS011;39388;50.936;6.848;2023-02-26T14:21:38;1.95;;;1.85;;
53505;SDS011;39388;50.936;6.848;2023-02-26T14:24:21;1.95;;;1.80;;
53505;SDS011;39388;50.936;6.848;2023-02-26T14:32:54;1.67;;;1.58;;
53505;SDS011;39388;50.936;6.848;2023-02-26T14:35:41;2.80;;;1.90;;
53505;SDS011;39388;50.936;6.848;2023-02-26T14:38:20;2.55;;;1.90;;
53505;SDS011;39388;50.936;6.848;2023-02-26T14:41:25;3.75;;;2.03;;
53505;SDS011;39388;50.936;6.848;2023-02-26T14:44:01;2.10;;;2.00;;
53505;SDS011;39388;50.936;6.848;2023-02-26T14:46:39;1.50;;;1.50;;
53505;SDS011;39388;50.936;6.848;2023-02-26T14:49:13;2.67;;;2.47;;
53505;SDS011;39388;50.936;6.848;2023-02-26T14:54:52;1.70;;;1.60;;
53505;SDS011;39388;50.936;6.848;2023-02-26T15:00:20;2.10;;;1.88;;
53505;SDS011;39388;50.936;6.848;2023-02-26T15:23:35;1.90;;;1.80;;
53505;SDS011;39388;50.936;6.848;2023-02-26T15:25:46;2.30;;;2.00;;
53505;SDS011;39388;50.936;6.848;2023-02-26T15:30:59;2.40;;;1.90;;
53505;SDS011;39388;50.936;6.848;2023-02-26T15:33:30;2.00;;;1.80;;
53505;SDS011;39388;50.936;6.848;2023-02-26T15:36:04;1.90;;;1.80;;
53505;SDS011;39388;50.936;6.848;2023-02-26T15:38:39;1.90;;;1.80;;
53505;SDS011;39388;50.936;6.848;2023-02-26T15:41:24;1.83;;;1.73;;
53505;SDS011;39388;50.936;6.848;2023-02-26T15:44:01;1.80;;;1.70;;
53505;SDS011;39388;50.936;6.848;2023-02-26T15:46:35;1.90;;;1.80;;
53505;SDS011;39388;50.936;6.848;2023-02-26T15:49:14;2.08;;;1.90;;
53505;SDS011;39388;50.936;6.848;2023-02-26T15:52:07;2.05;;;1.95;;
53505;SDS011;39388;50.936;6.848;2023-02-26T15:54:46;2.35;;;1.83;;
53505;SDS011;39388;50.936;6.848;2023-02-26T15:57:21;2.10;;;1.90;;
53505;SDS011;39388;50.936;6.848;2023-02-26T15:59:54;3.42;;;1.92;;
53505;SDS011;39388;50.936;6.848;2023-02-26T16:02:36;2.10;;;2.00;;
53505;SDS011;39388;50.936;6.848;2023-02-26T16:05:06;1.95;;;1.70;;
53505;SDS011;39388;50.936;6.848;2023-02-26T16:07:37;2.00;;;1.80;;
53505;SDS011;39388;50.936;6.848;2023-02-26T16:10:14;2.10;;;2.00;;
53505;SDS011;39388;50.936;6.848;2023-02-26T16:12:57;1.98;;;1.80;;
53505;SDS011;39388;50.936;6.848;2023-02-26T16:15:31;2.40;;;2.20;;
53505;SDS011;39388;50.936;6.848;2023-02-26T16:18:08;2.00;;;1.70;;
53505;SDS011;39388;50.936;6.848;2023-02-26T16:20:47;2.47;;;2.05;;
53505;SDS011;39388;50.936;6.848;2023-02-26T16:23:22;2.00;;;1.90;;
53505;SDS011;39388;50.936;6.848;2023-02-26T16:25:59;2.00;;;1.80;;
53505;SDS011;39388;50.936;6.848;2023-02-26T16:28:38;2.10;;;2.00;;
53505;SDS011;39388;50.936;6.848;2023-02-26T16:33:51;1.92;;;1.83;;
53505;SDS011;39388;50.936;6.848;2023-02-26T16:36:25;2.00;;;1.90;;
53505;SDS011;39388;50.936;6.848;2023-02-26T16:41:37;2.15;;;2.00;;
53505;SDS011;39388;50.936;6.848;2023-02-26T16:46:58;2.90;;;2.00;;
53505;SDS011;39388;50.936;6.848;2023-02-26T16:49:31;2.30;;;2.20;;
53505;SDS011;39388;50.936;6.848;2023-02-26T16:52:03;3.40;;;1.90;;
53505;SDS011;39388;50.936;6.848;2023-02-26T16:54:36;1.98;;;1.88;;
53505;SDS011;39388;50.936;6.848;2023-02-26T16:57:14;2.00;;;1.90;;
53505;SDS011;39388;50.936;6.848;2023-02-26T16:59:49;2.25;;;2.00;;
53505;SDS011;39388;50.936;6.848;2023-02-26T17:02:27;2.40;;;2.20;;
53505;SDS011;39388;50.936;6.848;2023-02-26T17:05:02;2.50;;;2.30;;
53505;SDS011;39388;50.936;6.848;2023-02-26T17:08:00;4.15;;;3.08;;
53505;SDS011;39388;50.936;6.848;2023-02-26T17:10:53;2.97;;;2.63;;
53505;SDS011;39388;50.936;6.848;2023-02-26T17:13:30;3.50;;;2.80;;
53505;SDS011;39388;50.936;6.848;2023-02-26T17:16:05;4.38;;;3.50;;
53505;SDS011;39388;50.936;6.848;2023-02-26T17:18:38;3.42;;;3.13;;
53505;SDS011;39388;50.936;6.848;2023-02-26T17:21:09;3.47;;;2.72;;
53505;SDS011;39388;50.936;6.848;2023-02-26T17:23:39;3.00;;;2.67;;
53505;SDS011;39388;50.936;6.848;2023-02-26T17:26:10;2.50;;;2.30;;
53505;SDS011;39388;50.936;6.848;2023-02-26T17:28:41;2.72;;;2.30;;
53505;SDS011;39388;50.936;6.848;2023-02-26T17:31:11;2.88;;;2.50;;
53505;SDS011;39388;50.936;6.848;2023-02-26T17:33:42;2.38;;;2.20;;
53505;SDS011;39388;50.936;6.848;2023-02-26T17:36:14;2.17;;;2.08;;
53505;SDS011;39388;50.936;6.848;2023-02-26T17:38:47;2.78;;;2.42;;
53505;SDS011;39388;50.936;6.848;2023-02-26T17:41:19;2.63;;;2.42;;
53505;SDS011;39388;50.936;6.848;2023-02-26T17:43:49;2.83;;;2.60;;
53505;SDS011;39388;50.936;6.848;2023-02-26T17:46:20;2.20;;;2.10;;
53505;SDS011;39388;50.936;6.848;2023-02-26T17:48:50;2.60;;;2.35;;
53505;SDS011;39388;50.936;6.848;2023-02-26T17:51:21;3.50;;;2.80;;
53505;SDS011;39388;50.936;6.848;2023-02-26T17:53:51;2.75;;;2.53;;
53505;SDS011;39388;50.936;6.848;2023-02-26T17:58:54;4.40;;;3.03;;
53505;SDS011;39388;50.936;6.848;2023-02-26T18:01:26;3.10;;;2.90;;
53505;SDS011;39388;50.936;6.848;2023-02-26T18:03:57;4.05;;;3.70;;
53505;SDS011;39388;50.936;6.848;2023-02-26T18:06:32;4.35;;;3.63;;
53505;SDS011;39388;50.936;6.848;2023-02-26T18:09:04;5.75;;;3.72;;
53505;SDS011;39388;50.936;6.848;2023-02-26T18:11:35;6.07;;;4.10;;
53505;SDS011;39388;50.936;6.848;2023-02-26T18:14:07;4.25;;;3.38;;
53505;SDS011;39388;50.936;6.848;2023-02-26T18:16:40;5.20;;;3.60;;
53505;SDS011;39388;50.936;6.848;2023-02-26T18:19:12;4.45;;;3.50;;
53505;SDS011;39388;50.936;6.848;2023-02-26T18:21:43;5.22;;;3.67;;
53505;SDS011;39388;50.936;6.848;2023-02-26T18:24:14;4.10;;;3.70;;
53505;SDS011;39388;50.936;6.848;2023-02-26T18:26:44;4.18;;;3.80;;
53505;SDS011;39388;50.936;6.848;2023-02-26T18:29:15;3.97;;;3.67;;
53505;SDS011;39388;50.936;6.848;2023-02-26T18:31:45;4.07;;;3.30;;
53505;SDS011;39388;50.936;6.848;2023-02-26T18:34:15;3.90;;;3.20;;
53505;SDS011;39388;50.936;6.848;2023-02-26T18:36:46;9.48;;;6.00;;
53505;SDS011;39388;50.936;6.848;2023-02-26T18:39:18;18.37;;;8.57;;
53505;SDS011;39388;50.936;6.848;2023-02-26T18:41:49;3.60;;;3.30;;
53505;SDS011;39388;50.936;6.848;2023-02-26T18:44:19;3.80;;;3.40;;
53505;SDS011;39388;50.936;6.848;2023-02-26T18:46:50;4.00;;;3.42;;
53505;SDS011;39388;50.936;6.848;2023-02-26T18:49:20;3.40;;;3.10;;
53505;SDS011;39388;50.936;6.848;2023-02-26T18:51:51;4.55;;;4.03;;
53505;SDS011;39388;50.936;6.848;2023-02-26T18:54:23;3.63;;;3.30;;
53505;SDS011;39388;50.936;6.848;2023-02-26T18:56:54;4.57;;;3.50;;
53505;SDS011;39388;50.936;6.848;2023-02-26T18:59:24;4.13;;;3.72;;
53505;SDS011;39388;50.936;6.848;2023-02-26T19:01:55;4.45;;;3.80;;
53505;SDS011;39388;50.936;6.848;2023-02-26T19:04:25;4.32;;;3.78;;
53505;SDS011;39388;50.936;6.848;2023-02-26T19:06:56;5.10;;;4.05;;
53505;SDS011;39388;50.936;6.848;2023-02-26T19:09:27;3.88;;;3.58;;
53505;SDS011;39388;50.936;6.848;2023-02-26T19:11:57;4.55;;;4.10;;
53505;SDS011;39388;50.936;6.848;2023-02-26T19:14:28;4.30;;;3.97;;
53505;SDS011;39388;50.936;6.848;2023-02-26T19:16:58;5.78;;;4.65;;
53505;SDS011;39388;50.936;6.848;2023-02-26T19:19:29;5.15;;;4.65;;
53505;SDS011;39388;50.936;6.848;2023-02-26T19:21:59;6.03;;;4.00;;
53505;SDS011;39388;50.936;6.848;2023-02-26T19:24:30;4.30;;;3.67;;
53505;SDS011;39388;50.936;6.848;2023-02-26T19:27:01;5.15;;;4.10;;
53505;SDS011;39388;50.936;6.848;2023-02-26T19:29:33;4.00;;;3.53;;
53505;SDS011;39388;50.936;6.848;2023-02-26T19:32:05;5.03;;;3.83;;
53505;SDS011;39388;50.936;6.848;2023-02-26T19:34:36;4.05;;;3.65;;
53505;SDS011;39388;50.936;6.848;2023-02-26T19:37:07;5.53;;;3.67;;
53505;SDS011;39388;50.936;6.848;2023-02-26T19:39:39;4.85;;;3.70;;
53505;SDS011;39388;50.936;6.848;2023-02-26T19:42:09;4.53;;;4.13;;
53505;SDS011;39388;50.936;6.848;2023-02-26T19:44:40;6.30;;;4.25;;
53505;SDS011;39388;50.936;6.848;2023-02-26T19:47:11;4.80;;;4.32;;
53505;SDS011;39388;50.936;6.848;2023-02-26T19:49:41;5.13;;;4.63;;
53505;SDS011;39388;50.936;6.848;2023-02-26T19:52:11;4.97;;;4.28;;
53505;SDS011;39388;50.936;6.848;2023-02-26T19:54:42;5.07;;;4.57;;
53505;SDS011;39388;50.936;6.848;2023-02-26T19:57:12;5.80;;;4.78;;
53505;SDS011;39388;50.936;6.848;2023-02-26T19:59:43;5.00;;;4.32;;
53505;SDS011;39388;50.936;6.848;2023-02-26T20:02:13;6.40;;;4.43;;
53505;SDS011;39388;50.936;6.848;2023-02-26T20:04:44;5.18;;;4.60;;
53505;SDS011;39388;50.936;6.848;2023-02-26T20:07:14;7.25;;;5.57;;
53505;SDS011;39388;50.936;6.848;2023-02-26T20:09:45;5.40;;;4.90;;
53505;SDS011;39388;50.936;6.848;2023-02-26T20:12:15;6.15;;;5.47;;
53505;SDS011;39388;50.936;6.848;2023-02-26T20:14:46;5.97;;;5.00;;
53505;SDS011;39388;50.936;6.848;2023-02-26T20:17:17;5.25;;;4.60;;
53505;SDS011;39388;50.936;6.848;2023-02-26T20:19:48;6.70;;;5.28;;
53505;SDS011;39388;50.936;6.848;2023-02-26T20:22:18;7.47;;;6.22;;
53505;SDS011;39388;50.936;6.848;2023-02-26T20:24:51;8.27;;;5.20;;
53505;SDS011;39388;50.936;6.848;2023-02-26T20:27:22;8.55;;;5.57;;
53505;SDS011;39388;50.936;6.848;2023-02-26T20:29:52;6.85;;;4.95;;
53505;SDS011;39388;50.936;6.848;2023-02-26T20:32:22;5.70;;;5.18;;
53505;SDS011;39388;50.936;6.848;2023-02-26T20:34:54;8.00;;;5.25;;